sensor_id;sensor_type;location;lat;lon;timestamp;P1;durP1;ratioP1;P2;durP2;ratioP2
76053;SDS011;64752;48.870;9.082;2023-11-18T00:00:06;7.30;;;5.63;;
76053;SDS011;64752;48.870;9.082;2023-11-18T00:02:37;9.02;;;5.82;;
76053;SDS011;64752;48.870;9.082;2023-11-18T00:05:03;8.40;;;5.05;;
76053;SDS011;64752;48.870;9.082;2023-11-18T00:07:29;7.25;;;4.80;;
76053;SDS011;64752;48.870;9.082;2023-11-18T00:09:54;6.70;;;4.88;;
76053;SDS011;64752;48.870;9.082;2023-11-18T00:12:20;5.35;;;4.05;;
76053;SDS011;64752;48.870;9.082;2023-11-18T00:14:45;5.45;;;4.55;;
76053;SDS011;64752;48.870;9.082;2023-11-18T00:17:11;6.20;;;4.45;;
76053;SDS011;64752;48.870;9.082;2023-11-18T00:19:37;7.30;;;5.00;;
76053;SDS011;64752;48.870;9.082;2023-11-18T00:22:02;6.60;;;5.25;;
76053;SDS011;64752;48.870;9.082;2023-11-18T00:24:28;11.35;;;6.07;;
76053;SDS011;64752;48.870;9.082;2023-11-18T00:26:53;8.15;;;5.65;;
76053;SDS011;64752;48.870;9.082;2023-11-18T00:29:20;7.63;;;6.00;;
76053;SDS011;64752;48.870;9.082;2023-11-18T00:31:45;7.00;;;5.25;;
76053;SDS011;64752;48.870;9.082;2023-11-18T00:34:11;24.60;;;5.85;;
76053;SDS011;64752;48.870;9.082;2023-11-18T00:36:36;12.65;;;5.68;;
76053;SDS011;64752;48.870;9.082;2023-11-18T00:39:01;18.48;;;6.97;;
76053;SDS011;64752;48.870;9.082;2023-11-18T00:41:29;20.20;;;7.63;;
76053;SDS011;64752;48.870;9.082;2023-11-18T00:43:54;8.15;;;6.03;;
76053;SDS011;64752;48.870;9.082;2023-11-18T00:46:21;11.73;;;6.55;;
76053;SDS011;64752;48.870;9.082;2023-11-18T00:48:47;8.32;;;5.60;;
76053;SDS011;64752;48.870;9.082;2023-11-18T00:51:12;9.27;;;4.97;;
76053;SDS011;64752;48.870;9.082;2023-11-18T00:53:38;8.38;;;5.65;;
76053;SDS011;64752;48.870;9.082;2023-11-18T00:56:04;6.10;;;4.53;;
76053;SDS011;64752;48.870;9.082;2023-11-18T00:58:33;8.02;;;4.78;;
76053;SDS011;64752;48.870;9.082;2023-11-18T01:01:01;8.32;;;4.78;;
76053;SDS011;64752;48.870;9.082;2023-11-18T01:03:27;7.13;;;4.75;;
76053;SDS011;64752;48.870;9.082;2023-11-18T01:05:53;5.85;;;4.57;;
76053;SDS011;64752;48.870;9.082;2023-11-18T01:08:18;6.32;;;4.70;;
76053;SDS011;64752;48.870;9.082;2023-11-18T01:10:43;9.55;;;6.07;;
76053;SDS011;64752;48.870;9.082;2023-11-18T01:13:09;6.72;;;5.20;;
76053;SDS011;64752;48.870;9.082;2023-11-18T01:15:34;7.00;;;5.20;;
76053;SDS011;64752;48.870;9.082;2023-11-18T01:18:00;6.70;;;5.82;;
76053;SDS011;64752;48.870;9.082;2023-11-18T01:20:25;7.65;;;6.20;;
76053;SDS011;64752;48.870;9.082;2023-11-18T01:22:51;8.82;;;6.03;;
76053;SDS011;64752;48.870;9.082;2023-11-18T01:25:16;6.88;;;5.72;;
76053;SDS011;64752;48.870;9.082;2023-11-18T01:27:42;9.23;;;5.78;;
76053;SDS011;64752;48.870;9.082;2023-11-18T01:30:11;8.60;;;6.68;;
76053;SDS011;64752;48.870;9.082;2023-11-18T01:32:37;7.05;;;5.75;;
76053;SDS011;64752;48.870;9.082;2023-11-18T01:35:05;8.75;;;6.18;;
76053;SDS011;64752;48.870;9.082;2023-11-18T01:37:30;6.75;;;5.45;;
76053;SDS011;64752;48.870;9.082;2023-11-18T01:39:56;9.50;;;6.75;;
76053;SDS011;64752;48.870;9.082;2023-11-18T01:42:22;7.85;;;6.70;;
76053;SDS011;64752;48.870;9.082;2023-11-18T01:44:50;8.80;;;6.40;;
76053;SDS011;64752;48.870;9.082;2023-11-18T01:47:16;10.20;;;7.15;;
76053;SDS011;64752;48.870;9.082;2023-11-18T01:49:41;7.97;;;6.25;;
76053;SDS011;64752;48.870;9.082;2023-11-18T01:52:08;8.77;;;6.60;;
76053;SDS011;64752;48.870;9.082;2023-11-18T01:54:38;7.95;;;6.25;;
76053;SDS011;64752;48.870;9.082;2023-11-18T01:57:05;8.07;;;5.97;;
76053;SDS011;64752;48.870;9.082;2023-11-18T01:59:36;8.70;;;6.60;;
76053;SDS011;64752;48.870;9.082;2023-11-18T02:02:05;7.13;;;5.80;;
76053;SDS011;64752;48.870;9.082;2023-11-18T02:04:30;7.47;;;6.03;;
76053;SDS011;64752;48.870;9.082;2023-11-18T02:06:56;7.55;;;6.05;;
76053;SDS011;64752;48.870;9.082;2023-11-18T02:09:22;6.88;;;5.32;;
76053;SDS011;64752;48.870;9.082;2023-11-18T02:14:41;7.53;;;5.43;;
76053;SDS011;64752;48.870;9.082;2023-11-18T02:17:08;7.25;;;4.88;;
76053;SDS011;64752;48.870;9.082;2023-11-18T02:19:35;6.60;;;4.65;;
76053;SDS011;64752;48.870;9.082;2023-11-18T02:22:04;6.45;;;4.38;;
76053;SDS011;64752;48.870;9.082;2023-11-18T02:24:32;8.45;;;4.90;;
76053;SDS011;64752;48.870;9.082;2023-11-18T02:27:02;7.78;;;5.15;;
76053;SDS011;64752;48.870;9.082;2023-11-18T02:29:32;8.65;;;5.68;;
76053;SDS011;64752;48.870;9.082;2023-11-18T02:34:51;6.63;;;5.20;;
76053;SDS011;64752;48.870;9.082;2023-11-18T02:37:27;9.18;;;6.32;;
76053;SDS011;64752;48.870;9.082;2023-11-18T02:40:04;9.63;;;6.40;;
76053;SDS011;64752;48.870;9.082;2023-11-18T02:42:34;7.70;;;5.85;;
76053;SDS011;64752;48.870;9.082;2023-11-18T02:45:03;9.25;;;6.90;;
76053;SDS011;64752;48.870;9.082;2023-11-18T02:47:31;10.30;;;6.65;;
76053;SDS011;64752;48.870;9.082;2023-11-18T02:49:57;10.38;;;6.97;;
76053;SDS011;64752;48.870;9.082;2023-11-18T02:52:30;8.20;;;6.35;;
76053;SDS011;64752;48.870;9.082;2023-11-18T02:54:56;8.82;;;6.28;;
76053;SDS011;64752;48.870;9.082;2023-11-18T02:57:21;10.43;;;6.15;;
76053;SDS011;64752;48.870;9.082;2023-11-18T02:59:47;8.10;;;6.22;;
76053;SDS011;64752;48.870;9.082;2023-11-18T03:02:12;8.70;;;6.25;;
76053;SDS011;64752;48.870;9.082;2023-11-18T03:04:37;6.80;;;5.70;;
76053;SDS011;64752;48.870;9.082;2023-11-18T03:07:03;8.00;;;5.65;;
76053;SDS011;64752;48.870;9.082;2023-11-18T03:09:28;6.13;;;5.15;;
76053;SDS011;64752;48.870;9.082;2023-11-18T03:11:53;8.30;;;5.10;;
76053;SDS011;64752;48.870;9.082;2023-11-18T03:14:20;6.55;;;4.28;;
76053;SDS011;64752;48.870;9.082;2023-11-18T03:16:45;5.00;;;4.05;;
76053;SDS011;64752;48.870;9.082;2023-11-18T03:19:10;6.82;;;5.22;;
76053;SDS011;64752;48.870;9.082;2023-11-18T03:21:36;6.38;;;4.80;;
76053;SDS011;64752;48.870;9.082;2023-11-18T03:24:02;7.20;;;5.20;;
76053;SDS011;64752;48.870;9.082;2023-11-18T03:26:27;7.47;;;5.35;;
76053;SDS011;64752;48.870;9.082;2023-11-18T03:28:52;7.82;;;5.20;;
76053;SDS011;64752;48.870;9.082;2023-11-18T03:31:18;5.78;;;4.50;;
76053;SDS011;64752;48.870;9.082;2023-11-18T03:33:44;6.70;;;4.95;;
76053;SDS011;64752;48.870;9.082;2023-11-18T03:36:10;7.25;;;5.60;;
76053;SDS011;64752;48.870;9.082;2023-11-18T03:38:37;8.52;;;5.07;;
76053;SDS011;64752;48.870;9.082;2023-11-18T03:41:02;6.95;;;4.78;;
76053;SDS011;64752;48.870;9.082;2023-11-18T03:43:28;6.45;;;4.97;;
76053;SDS011;64752;48.870;9.082;2023-11-18T03:45:53;6.82;;;4.78;;
76053;SDS011;64752;48.870;9.082;2023-11-18T03:48:21;5.53;;;4.15;;
76053;SDS011;64752;48.870;9.082;2023-11-18T03:50:47;7.18;;;4.18;;
76053;SDS011;64752;48.870;9.082;2023-11-18T03:53:13;4.38;;;3.45;;
76053;SDS011;64752;48.870;9.082;2023-11-18T03:55:38;5.95;;;3.90;;
76053;SDS011;64752;48.870;9.082;2023-11-18T03:58:04;4.38;;;3.53;;
76053;SDS011;64752;48.870;9.082;2023-11-18T04:00:29;6.03;;;4.28;;
76053;SDS011;64752;48.870;9.082;2023-11-18T04:02:58;5.68;;;4.53;;
76053;SDS011;64752;48.870;9.082;2023-11-18T04:05:24;7.45;;;4.63;;
76053;SDS011;64752;48.870;9.082;2023-11-18T04:07:49;6.55;;;4.95;;
76053;SDS011;64752;48.870;9.082;2023-11-18T04:10:15;7.53;;;5.32;;
76053;SDS011;64752;48.870;9.082;2023-11-18T04:12:41;7.18;;;5.45;;
76053;SDS011;64752;48.870;9.082;2023-11-18T04:15:11;9.88;;;6.55;;
76053;SDS011;64752;48.870;9.082;2023-11-18T04:17:37;7.53;;;4.90;;
76053;SDS011;64752;48.870;9.082;2023-11-18T04:20:03;7.18;;;5.32;;
76053;SDS011;64752;48.870;9.082;2023-11-18T04:22:33;8.15;;;5.57;;
76053;SDS011;64752;48.870;9.082;2023-11-18T04:24:59;6.78;;;5.15;;
76053;SDS011;64752;48.870;9.082;2023-11-18T04:27:27;6.30;;;4.93;;
76053;SDS011;64752;48.870;9.082;2023-11-18T04:29:52;6.05;;;4.53;;
76053;SDS011;64752;48.870;9.082;2023-11-18T04:32:18;7.45;;;4.65;;
76053;SDS011;64752;48.870;9.082;2023-11-18T04:34:43;7.25;;;5.00;;
76053;SDS011;64752;48.870;9.082;2023-11-18T04:37:09;7.50;;;5.03;;
76053;SDS011;64752;48.870;9.082;2023-11-18T04:39:34;7.95;;;5.30;;
76053;SDS011;64752;48.870;9.082;2023-11-18T04:44:27;8.10;;;5.63;;
76053;SDS011;64752;48.870;9.082;2023-11-18T04:46:52;6.93;;;4.82;;
76053;SDS011;64752;48.870;9.082;2023-11-18T04:49:18;6.65;;;5.20;;
76053;SDS011;64752;48.870;9.082;2023-11-18T04:51:44;7.00;;;5.05;;
76053;SDS011;64752;48.870;9.082;2023-11-18T04:54:09;9.15;;;5.22;;
76053;SDS011;64752;48.870;9.082;2023-11-18T04:56:35;8.93;;;6.15;;
76053;SDS011;64752;48.870;9.082;2023-11-18T04:59:02;8.65;;;6.35;;
76053;SDS011;64752;48.870;9.082;2023-11-18T05:01:29;8.13;;;6.25;;
76053;SDS011;64752;48.870;9.082;2023-11-18T05:03:55;8.65;;;6.22;;
76053;SDS011;64752;48.870;9.082;2023-11-18T05:06:21;11.60;;;6.00;;
76053;SDS011;64752;48.870;9.082;2023-11-18T05:08:47;8.82;;;6.22;;
76053;SDS011;64752;48.870;9.082;2023-11-18T05:11:12;10.60;;;6.88;;
76053;SDS011;64752;48.870;9.082;2023-11-18T05:13:38;9.63;;;7.10;;
76053;SDS011;64752;48.870;9.082;2023-11-18T05:16:07;10.23;;;6.50;;
76053;SDS011;64752;48.870;9.082;2023-11-18T05:18:32;10.20;;;7.15;;
76053;SDS011;64752;48.870;9.082;2023-11-18T05:21:18;10.27;;;7.38;;
76053;SDS011;64752;48.870;9.082;2023-11-18T05:23:43;8.77;;;6.72;;
76053;SDS011;64752;48.870;9.082;2023-11-18T05:26:09;11.52;;;7.38;;
76053;SDS011;64752;48.870;9.082;2023-11-18T05:28:34;12.82;;;6.40;;
76053;SDS011;64752;48.870;9.082;2023-11-18T05:30:59;9.82;;;6.65;;
76053;SDS011;64752;48.870;9.082;2023-11-18T05:33:27;10.20;;;7.10;;
76053;SDS011;64752;48.870;9.082;2023-11-18T05:35:53;9.05;;;6.75;;
76053;SDS011;64752;48.870;9.082;2023-11-18T05:38:20;8.90;;;6.68;;
76053;SDS011;64752;48.870;9.082;2023-11-18T05:40:51;9.88;;;7.25;;
76053;SDS011;64752;48.870;9.082;2023-11-18T05:43:25;9.40;;;6.80;;
76053;SDS011;64752;48.870;9.082;2023-11-18T05:45:54;10.85;;;7.65;;
76053;SDS011;64752;48.870;9.082;2023-11-18T05:48:38;10.73;;;7.30;;
76053;SDS011;64752;48.870;9.082;2023-11-18T05:51:04;11.93;;;7.63;;
76053;SDS011;64752;48.870;9.082;2023-11-18T05:53:30;8.93;;;6.80;;
76053;SDS011;64752;48.870;9.082;2023-11-18T05:55:56;9.40;;;6.80;;
76053;SDS011;64752;48.870;9.082;2023-11-18T05:58:22;7.68;;;5.65;;
76053;SDS011;64752;48.870;9.082;2023-11-18T06:00:47;10.98;;;6.75;;
76053;SDS011;64752;48.870;9.082;2023-11-18T06:03:13;9.30;;;6.53;;
76053;SDS011;64752;48.870;9.082;2023-11-18T06:05:39;11.13;;;7.90;;
76053;SDS011;64752;48.870;9.082;2023-11-18T06:08:05;10.52;;;7.90;;
76053;SDS011;64752;48.870;9.082;2023-11-18T06:10:30;14.10;;;9.65;;
76053;SDS011;64752;48.870;9.082;2023-11-18T06:12:59;11.55;;;8.40;;
76053;SDS011;64752;48.870;9.082;2023-11-18T06:15:25;12.48;;;7.95;;
76053;SDS011;64752;48.870;9.082;2023-11-18T06:17:50;10.80;;;8.25;;
76053;SDS011;64752;48.870;9.082;2023-11-18T06:20:16;10.70;;;8.13;;
76053;SDS011;64752;48.870;9.082;2023-11-18T06:22:42;11.63;;;8.80;;
76053;SDS011;64752;48.870;9.082;2023-11-18T06:25:07;11.27;;;8.40;;
76053;SDS011;64752;48.870;9.082;2023-11-18T06:27:33;12.63;;;8.60;;
76053;SDS011;64752;48.870;9.082;2023-11-18T06:29:59;9.88;;;7.95;;
76053;SDS011;64752;48.870;9.082;2023-11-18T06:32:24;10.50;;;7.82;;
76053;SDS011;64752;48.870;9.082;2023-11-18T06:34:52;11.15;;;8.15;;
76053;SDS011;64752;48.870;9.082;2023-11-18T06:37:18;9.80;;;6.97;;
76053;SDS011;64752;48.870;9.082;2023-11-18T06:39:44;10.30;;;6.97;;
76053;SDS011;64752;48.870;9.082;2023-11-18T06:42:12;12.23;;;7.72;;
76053;SDS011;64752;48.870;9.082;2023-11-18T06:44:39;11.82;;;8.20;;
76053;SDS011;64752;48.870;9.082;2023-11-18T06:47:04;14.23;;;9.27;;
76053;SDS011;64752;48.870;9.082;2023-11-18T06:49:31;14.15;;;8.88;;
76053;SDS011;64752;48.870;9.082;2023-11-18T06:51:59;14.82;;;10.43;;
76053;SDS011;64752;48.870;9.082;2023-11-18T06:54:27;16.95;;;10.63;;
76053;SDS011;64752;48.870;9.082;2023-11-18T06:56:53;17.55;;;11.05;;
76053;SDS011;64752;48.870;9.082;2023-11-18T06:59:18;15.48;;;10.52;;
76053;SDS011;64752;48.870;9.082;2023-11-18T07:01:44;17.92;;;12.13;;
76053;SDS011;64752;48.870;9.082;2023-11-18T07:04:09;16.13;;;11.75;;
76053;SDS011;64752;48.870;9.082;2023-11-18T07:06:35;15.82;;;11.50;;
76053;SDS011;64752;48.870;9.082;2023-11-18T07:09:07;15.63;;;11.65;;
76053;SDS011;64752;48.870;9.082;2023-11-18T07:11:42;19.60;;;11.70;;
76053;SDS011;64752;48.870;9.082;2023-11-18T07:14:09;16.85;;;12.60;;
76053;SDS011;64752;48.870;9.082;2023-11-18T07:19:02;16.75;;;10.85;;
76053;SDS011;64752;48.870;9.082;2023-11-18T07:21:30;15.15;;;10.90;;
76053;SDS011;64752;48.870;9.082;2023-11-18T07:23:56;14.18;;;9.98;;
76053;SDS011;64752;48.870;9.082;2023-11-18T07:26:22;14.98;;;9.40;;
76053;SDS011;64752;48.870;9.082;2023-11-18T07:28:49;12.40;;;8.27;;
76053;SDS011;64752;48.870;9.082;2023-11-18T07:31:14;10.57;;;8.55;;
76053;SDS011;64752;48.870;9.082;2023-11-18T07:33:39;13.07;;;7.95;;
76053;SDS011;64752;48.870;9.082;2023-11-18T07:36:05;10.50;;;7.82;;
76053;SDS011;64752;48.870;9.082;2023-11-18T07:38:31;9.02;;;7.50;;
76053;SDS011;64752;48.870;9.082;2023-11-18T07:43:23;9.45;;;7.13;;
76053;SDS011;64752;48.870;9.082;2023-11-18T07:45:48;9.65;;;6.50;;
76053;SDS011;64752;48.870;9.082;2023-11-18T07:48:20;10.57;;;6.68;;
76053;SDS011;64752;48.870;9.082;2023-11-18T07:50:48;8.52;;;6.03;;
76053;SDS011;64752;48.870;9.082;2023-11-18T07:53:14;8.07;;;5.90;;
76053;SDS011;64752;48.870;9.082;2023-11-18T07:55:39;11.35;;;6.20;;
76053;SDS011;64752;48.870;9.082;2023-11-18T07:58:07;8.13;;;5.45;;
76053;SDS011;64752;48.870;9.082;2023-11-18T08:00:39;7.28;;;5.80;;
76053;SDS011;64752;48.870;9.082;2023-11-18T08:03:14;9.45;;;5.50;;
76053;SDS011;64752;48.870;9.082;2023-11-18T08:05:44;6.95;;;5.20;;
76053;SDS011;64752;48.870;9.082;2023-11-18T08:08:13;7.53;;;5.57;;
76053;SDS011;64752;48.870;9.082;2023-11-18T08:10:42;6.68;;;4.70;;
76053;SDS011;64752;48.870;9.082;2023-11-18T08:15:35;6.88;;;4.60;;
76053;SDS011;64752;48.870;9.082;2023-11-18T08:18:03;5.50;;;4.18;;
76053;SDS011;64752;48.870;9.082;2023-11-18T08:20:28;7.70;;;4.28;;
76053;SDS011;64752;48.870;9.082;2023-11-18T08:22:54;8.35;;;4.90;;
76053;SDS011;64752;48.870;9.082;2023-11-18T08:25:20;7.20;;;4.95;;
76053;SDS011;64752;48.870;9.082;2023-11-18T08:27:46;7.35;;;4.45;;
76053;SDS011;64752;48.870;9.082;2023-11-18T08:30:13;6.03;;;4.23;;
76053;SDS011;64752;48.870;9.082;2023-11-18T08:32:39;6.28;;;4.70;;
76053;SDS011;64752;48.870;9.082;2023-11-18T08:35:09;6.15;;;3.63;;
76053;SDS011;64752;48.870;9.082;2023-11-18T08:37:35;7.55;;;3.83;;
76053;SDS011;64752;48.870;9.082;2023-11-18T08:40:02;6.68;;;4.35;;
76053;SDS011;64752;48.870;9.082;2023-11-18T08:42:28;5.07;;;3.17;;
76053;SDS011;64752;48.870;9.082;2023-11-18T08:44:54;4.25;;;3.28;;
76053;SDS011;64752;48.870;9.082;2023-11-18T08:47:20;4.40;;;3.17;;
76053;SDS011;64752;48.870;9.082;2023-11-18T08:49:46;7.13;;;3.88;;
76053;SDS011;64752;48.870;9.082;2023-11-18T08:52:12;5.75;;;3.60;;
76053;SDS011;64752;48.870;9.082;2023-11-18T08:54:38;4.90;;;2.93;;
76053;SDS011;64752;48.870;9.082;2023-11-18T08:57:23;6.32;;;3.10;;
76053;SDS011;64752;48.870;9.082;2023-11-18T08:59:50;6.57;;;2.90;;
76053;SDS011;64752;48.870;9.082;2023-11-18T09:02:19;4.22;;;2.90;;
76053;SDS011;64752;48.870;9.082;2023-11-18T09:04:49;3.92;;;2.67;;
76053;SDS011;64752;48.870;9.082;2023-11-18T09:07:15;5.18;;;2.65;;
76053;SDS011;64752;48.870;9.082;2023-11-18T09:09:40;4.37;;;2.57;;
76053;SDS011;64752;48.870;9.082;2023-11-18T09:12:06;4.25;;;2.72;;
76053;SDS011;64752;48.870;9.082;2023-11-18T09:16:59;2.80;;;2.30;;
76053;SDS011;64752;48.870;9.082;2023-11-18T09:19:24;6.57;;;3.00;;
76053;SDS011;64752;48.870;9.082;2023-11-18T09:21:52;6.57;;;2.70;;
76053;SDS011;64752;48.870;9.082;2023-11-18T09:26:45;3.92;;;2.75;;
76053;SDS011;64752;48.870;9.082;2023-11-18T09:29:15;4.05;;;2.20;;
76053;SDS011;64752;48.870;9.082;2023-11-18T09:31:47;5.95;;;2.70;;
76053;SDS011;64752;48.870;9.082;2023-11-18T09:34:14;7.28;;;2.40;;
76053;SDS011;64752;48.870;9.082;2023-11-18T09:36:42;3.45;;;2.10;;
76053;SDS011;64752;48.870;9.082;2023-11-18T09:39:08;3.10;;;2.10;;
76053;SDS011;64752;48.870;9.082;2023-11-18T09:41:57;4.75;;;2.42;;
76053;SDS011;64752;48.870;9.082;2023-11-18T09:44:23;4.63;;;2.25;;
76053;SDS011;64752;48.870;9.082;2023-11-18T09:46:52;4.32;;;2.15;;
76053;SDS011;64752;48.870;9.082;2023-11-18T09:52:04;4.45;;;2.50;;
76053;SDS011;64752;48.870;9.082;2023-11-18T09:54:36;5.07;;;1.95;;
76053;SDS011;64752;48.870;9.082;2023-11-18T09:57:16;4.40;;;2.00;;
76053;SDS011;64752;48.870;9.082;2023-11-18T10:00:04;4.28;;;2.10;;
76053;SDS011;64752;48.870;9.082;2023-11-18T10:02:46;3.08;;;1.90;;
76053;SDS011;64752;48.870;9.082;2023-11-18T10:05:15;3.17;;;2.17;;
76053;SDS011;64752;48.870;9.082;2023-11-18T10:07:44;2.47;;;1.75;;
76053;SDS011;64752;48.870;9.082;2023-11-18T10:10:12;4.40;;;1.80;;
76053;SDS011;64752;48.870;9.082;2023-11-18T10:12:44;3.95;;;1.95;;
76053;SDS011;64752;48.870;9.082;2023-11-18T10:15:11;3.85;;;1.70;;
76053;SDS011;64752;48.870;9.082;2023-11-18T10:17:42;3.92;;;1.98;;
76053;SDS011;64752;48.870;9.082;2023-11-18T10:20:46;3.42;;;1.77;;
76053;SDS011;64752;48.870;9.082;2023-11-18T10:23:20;3.30;;;1.85;;
76053;SDS011;64752;48.870;9.082;2023-11-18T10:25:50;3.38;;;1.77;;
76053;SDS011;64752;48.870;9.082;2023-11-18T10:28:21;4.25;;;2.17;;
76053;SDS011;64752;48.870;9.082;2023-11-18T10:30:47;5.63;;;1.77;;
76053;SDS011;64752;48.870;9.082;2023-11-18T10:33:19;3.08;;;1.92;;
76053;SDS011;64752;48.870;9.082;2023-11-18T10:35:49;4.13;;;1.50;;
76053;SDS011;64752;48.870;9.082;2023-11-18T10:38:20;4.07;;;1.98;;
76053;SDS011;64752;48.870;9.082;2023-11-18T10:40:50;5.32;;;1.60;;
76053;SDS011;64752;48.870;9.082;2023-11-18T10:43:17;6.80;;;2.05;;
76053;SDS011;64752;48.870;9.082;2023-11-18T10:45:43;5.05;;;2.10;;
76053;SDS011;64752;48.870;9.082;2023-11-18T10:48:11;4.25;;;1.52;;
76053;SDS011;64752;48.870;9.082;2023-11-18T10:50:41;4.15;;;1.55;;
76053;SDS011;64752;48.870;9.082;2023-11-18T10:53:07;4.20;;;1.33;;
76053;SDS011;64752;48.870;9.082;2023-11-18T10:55:39;4.85;;;1.67;;
76053;SDS011;64752;48.870;9.082;2023-11-18T10:58:08;1.77;;;1.20;;
76053;SDS011;64752;48.870;9.082;2023-11-18T11:00:47;6.90;;;1.67;;
76053;SDS011;64752;48.870;9.082;2023-11-18T11:03:17;3.53;;;1.40;;
76053;SDS011;64752;48.870;9.082;2023-11-18T11:05:43;3.80;;;1.80;;
76053;SDS011;64752;48.870;9.082;2023-11-18T11:08:11;3.20;;;1.33;;
76053;SDS011;64752;48.870;9.082;2023-11-18T11:10:42;4.47;;;1.52;;
76053;SDS011;64752;48.870;9.082;2023-11-18T11:13:09;4.18;;;1.65;;
76053;SDS011;64752;48.870;9.082;2023-11-18T11:15:42;2.70;;;1.35;;
76053;SDS011;64752;48.870;9.082;2023-11-18T11:18:21;4.70;;;1.30;;
76053;SDS011;64752;48.870;9.082;2023-11-18T11:24:11;7.63;;;1.90;;
76053;SDS011;64752;48.870;9.082;2023-11-18T11:29:30;3.03;;;1.42;;
76053;SDS011;64752;48.870;9.082;2023-11-18T11:35:02;3.15;;;1.35;;
76053;SDS011;64752;48.870;9.082;2023-11-18T11:37:33;4.72;;;1.40;;
76053;SDS011;64752;48.870;9.082;2023-11-18T11:40:01;2.85;;;1.40;;
76053;SDS011;64752;48.870;9.082;2023-11-18T11:42:34;4.60;;;1.52;;
76053;SDS011;64752;48.870;9.082;2023-11-18T11:44:59;3.97;;;1.42;;
76053;SDS011;64752;48.870;9.082;2023-11-18T11:47:27;2.33;;;1.20;;
76053;SDS011;64752;48.870;9.082;2023-11-18T11:50:06;3.53;;;1.40;;
76053;SDS011;64752;48.870;9.082;2023-11-18T11:52:40;3.90;;;1.20;;
76053;SDS011;64752;48.870;9.082;2023-11-18T11:55:29;4.22;;;1.50;;
76053;SDS011;64752;48.870;9.082;2023-11-18T11:58:03;2.13;;;1.30;;
76053;SDS011;64752;48.870;9.082;2023-11-18T12:00:49;2.85;;;1.40;;
76053;SDS011;64752;48.870;9.082;2023-11-18T12:03:15;4.50;;;1.48;;
76053;SDS011;64752;48.870;9.082;2023-11-18T12:05:42;4.57;;;1.10;;
76053;SDS011;64752;48.870;9.082;2023-11-18T12:08:08;6.25;;;1.42;;
76053;SDS011;64752;48.870;9.082;2023-11-18T12:10:38;5.68;;;1.40;;
76053;SDS011;64752;48.870;9.082;2023-11-18T12:13:11;3.15;;;1.50;;
76053;SDS011;64752;48.870;9.082;2023-11-18T12:15:47;3.22;;;1.80;;
76053;SDS011;64752;48.870;9.082;2023-11-18T12:18:13;4.13;;;1.50;;
76053;SDS011;64752;48.870;9.082;2023-11-18T12:20:42;2.30;;;1.17;;
76053;SDS011;64752;48.870;9.082;2023-11-18T12:23:26;2.65;;;1.35;;
76053;SDS011;64752;48.870;9.082;2023-11-18T12:25:52;2.75;;;1.20;;
76053;SDS011;64752;48.870;9.082;2023-11-18T12:28:19;4.57;;;1.50;;
76053;SDS011;64752;48.870;9.082;2023-11-18T12:30:46;3.75;;;1.38;;
76053;SDS011;64752;48.870;9.082;2023-11-18T12:33:30;2.42;;;1.23;;
76053;SDS011;64752;48.870;9.082;2023-11-18T12:42:20;4.95;;;1.23;;
76053;SDS011;64752;48.870;9.082;2023-11-18T12:48:15;5.05;;;1.33;;
76053;SDS011;64752;48.870;9.082;2023-11-18T12:50:49;4.80;;;1.70;;
76053;SDS011;64752;48.870;9.082;2023-11-18T12:53:15;3.90;;;1.90;;
76053;SDS011;64752;48.870;9.082;2023-11-18T12:55:43;13.15;;;4.65;;
76053;SDS011;64752;48.870;9.082;2023-11-18T12:58:09;4.07;;;1.58;;
76053;SDS011;64752;48.870;9.082;2023-11-18T13:00:36;2.85;;;1.13;;
76053;SDS011;64752;48.870;9.082;2023-11-18T13:05:29;6.22;;;1.80;;
76053;SDS011;64752;48.870;9.082;2023-11-18T13:07:58;8.15;;;2.67;;
76053;SDS011;64752;48.870;9.082;2023-11-18T13:10:24;12.75;;;6.15;;
76053;SDS011;64752;48.870;9.082;2023-11-18T13:12:52;13.27;;;5.35;;
76053;SDS011;64752;48.870;9.082;2023-11-18T13:15:17;5.90;;;2.42;;
76053;SDS011;64752;48.870;9.082;2023-11-18T13:17:59;6.85;;;2.60;;
76053;SDS011;64752;48.870;9.082;2023-11-18T13:20:25;9.65;;;3.63;;
76053;SDS011;64752;48.870;9.082;2023-11-18T13:22:51;3.05;;;1.80;;
76053;SDS011;64752;48.870;9.082;2023-11-18T13:25:17;4.72;;;1.55;;
76053;SDS011;64752;48.870;9.082;2023-11-18T13:27:43;3.90;;;1.27;;
76053;SDS011;64752;48.870;9.082;2023-11-18T13:30:08;4.93;;;1.30;;
76053;SDS011;64752;48.870;9.082;2023-11-18T13:32:40;5.03;;;1.23;;
76053;SDS011;64752;48.870;9.082;2023-11-18T13:35:07;2.85;;;1.23;;
76053;SDS011;64752;48.870;9.082;2023-11-18T13:37:33;2.97;;;1.23;;
76053;SDS011;64752;48.870;9.082;2023-11-18T13:39:58;5.03;;;1.55;;
76053;SDS011;64752;48.870;9.082;2023-11-18T13:42:25;5.50;;;1.50;;
76053;SDS011;64752;48.870;9.082;2023-11-18T13:45:04;4.10;;;1.77;;
76053;SDS011;64752;48.870;9.082;2023-11-18T13:47:50;2.95;;;1.58;;
76053;SDS011;64752;48.870;9.082;2023-11-18T13:50:21;3.42;;;1.42;;
76053;SDS011;64752;48.870;9.082;2023-11-18T13:52:47;6.95;;;1.52;;
76053;SDS011;64752;48.870;9.082;2023-11-18T13:55:14;3.97;;;1.50;;
76053;SDS011;64752;48.870;9.082;2023-11-18T13:57:56;4.90;;;1.42;;
76053;SDS011;64752;48.870;9.082;2023-11-18T14:00:23;3.78;;;1.60;;
76053;SDS011;64752;48.870;9.082;2023-11-18T14:02:52;2.67;;;1.30;;
76053;SDS011;64752;48.870;9.082;2023-11-18T14:05:20;3.38;;;1.55;;
76053;SDS011;64752;48.870;9.082;2023-11-18T14:07:52;3.80;;;1.58;;
76053;SDS011;64752;48.870;9.082;2023-11-18T14:10:24;3.88;;;1.55;;
76053;SDS011;64752;48.870;9.082;2023-11-18T14:15:26;4.15;;;1.67;;
76053;SDS011;64752;48.870;9.082;2023-11-18T14:17:51;6.60;;;1.77;;
76053;SDS011;64752;48.870;9.082;2023-11-18T14:20:18;3.93;;;1.63;;
76053;SDS011;64752;48.870;9.082;2023-11-18T14:22:45;3.75;;;1.67;;
76053;SDS011;64752;48.870;9.082;2023-11-18T14:25:10;4.13;;;1.85;;
76053;SDS011;64752;48.870;9.082;2023-11-18T14:27:37;4.60;;;2.10;;
76053;SDS011;64752;48.870;9.082;2023-11-18T14:30:03;5.45;;;2.08;;
76053;SDS011;64752;48.870;9.082;2023-11-18T14:32:33;5.53;;;1.90;;
76053;SDS011;64752;48.870;9.082;2023-11-18T14:34:59;4.32;;;2.00;;
76053;SDS011;64752;48.870;9.082;2023-11-18T14:37:24;3.42;;;1.77;;
76053;SDS011;64752;48.870;9.082;2023-11-18T14:39:50;4.63;;;1.95;;
76053;SDS011;64752;48.870;9.082;2023-11-18T14:44:42;5.93;;;1.90;;
76053;SDS011;64752;48.870;9.082;2023-11-18T14:47:08;5.60;;;1.80;;
76053;SDS011;64752;48.870;9.082;2023-11-18T14:49:33;3.80;;;1.98;;
76053;SDS011;64752;48.870;9.082;2023-11-18T14:51:59;3.53;;;1.92;;
76053;SDS011;64752;48.870;9.082;2023-11-18T14:54:25;4.63;;;2.20;;
76053;SDS011;64752;48.870;9.082;2023-11-18T14:56:50;8.43;;;2.05;;
76053;SDS011;64752;48.870;9.082;2023-11-18T14:59:15;4.25;;;1.70;;
76053;SDS011;64752;48.870;9.082;2023-11-18T15:01:41;5.32;;;1.80;;
76053;SDS011;64752;48.870;9.082;2023-11-18T15:04:09;5.20;;;2.05;;
76053;SDS011;64752;48.870;9.082;2023-11-18T15:06:35;4.90;;;2.50;;
76053;SDS011;64752;48.870;9.082;2023-11-18T15:09:01;2.95;;;1.95;;
76053;SDS011;64752;48.870;9.082;2023-11-18T15:11:28;5.25;;;1.70;;
76053;SDS011;64752;48.870;9.082;2023-11-18T15:13:54;3.92;;;2.17;;
76053;SDS011;64752;48.870;9.082;2023-11-18T15:16:21;6.68;;;2.97;;
76053;SDS011;64752;48.870;9.082;2023-11-18T15:18:47;7.80;;;3.63;;
76053;SDS011;64752;48.870;9.082;2023-11-18T15:21:15;6.53;;;2.90;;
76053;SDS011;64752;48.870;9.082;2023-11-18T15:23:40;15.57;;;8.85;;
76053;SDS011;64752;48.870;9.082;2023-11-18T15:26:09;8.40;;;2.75;;
76053;SDS011;64752;48.870;9.082;2023-11-18T15:28:35;6.15;;;2.65;;
76053;SDS011;64752;48.870;9.082;2023-11-18T15:31:08;6.65;;;2.72;;
76053;SDS011;64752;48.870;9.082;2023-11-18T15:33:33;7.43;;;3.42;;
76053;SDS011;64752;48.870;9.082;2023-11-18T15:35:59;5.60;;;2.42;;
76053;SDS011;64752;48.870;9.082;2023-11-18T15:38:26;7.43;;;2.40;;